createdAt,value
2018-08-16T00:00:18.820Z,23.19
2018-08-16T00:02:47.996Z,23.31
2018-08-16T00:05:17.286Z,23.44
2018-08-16T00:07:46.499Z,23.53
2018-08-16T00:10:16.588Z,23.42
2018-08-16T00:12:46.644Z,23.47
2018-08-16T00:15:16.752Z,23.46
2018-08-16T00:17:45.632Z,23.40
2018-08-16T00:20:14.579Z,23.38
2018-08-16T00:22:43.789Z,23.32
2018-08-16T00:27:53.181Z,23.37
2018-08-16T00:30:21.979Z,23.40
2018-08-16T00:32:50.756Z,23.33
2018-08-16T00:35:19.699Z,23.37
2018-08-16T00:37:48.612Z,23.44
2018-08-16T00:40:18.537Z,23.28
2018-08-16T00:42:47.476Z,23.36
2018-08-16T00:45:16.384Z,23.32
2018-08-16T00:47:45.290Z,23.34
2018-08-16T00:50:15.813Z,23.39
2018-08-16T00:52:44.763Z,23.43
2018-08-16T00:55:14.538Z,23.37
2018-08-16T00:57:43.368Z,23.25
2018-08-16T01:00:15.949Z,22.95
2018-08-16T01:02:45.121Z,22.75
2018-08-16T01:05:14.365Z,22.46
2018-08-16T01:07:43.206Z,22.40
2018-08-16T01:10:13.538Z,22.31
2018-08-16T01:12:43.146Z,22.04
2018-08-16T01:15:13.383Z,21.82
2018-08-16T01:17:42.473Z,21.69
2018-08-16T01:20:11.410Z,21.79
2018-08-16T01:22:40.405Z,21.74
2018-08-16T01:25:10.618Z,21.87
2018-08-16T01:27:39.524Z,21.89
2018-08-16T01:30:09.390Z,22.03
2018-08-16T01:32:38.272Z,22.15
2018-08-16T01:35:08.030Z,22.09
2018-08-16T01:37:36.896Z,22.11
2018-08-16T01:40:06.952Z,22.01
2018-08-16T01:42:36.108Z,22.04
2018-08-16T01:45:05.698Z,21.84
2018-08-16T01:47:34.658Z,21.91
2018-08-16T01:50:03.584Z,21.90
2018-08-16T01:52:32.365Z,21.95
2018-08-16T01:55:01.213Z,21.86
2018-08-16T01:57:29.980Z,21.90
2018-08-16T01:59:58.788Z,21.88
2018-08-16T02:02:27.638Z,21.89
2018-08-16T02:04:56.441Z,22.09
2018-08-16T02:07:25.253Z,22.12
2018-08-16T02:09:54.130Z,22.18
2018-08-16T02:12:22.997Z,22.34
2018-08-16T02:14:51.817Z,22.19
2018-08-16T02:17:20.690Z,22.38
2018-08-16T02:19:49.483Z,22.31
2018-08-16T02:22:18.285Z,22.51
2018-08-16T02:24:47.146Z,22.79
2018-08-16T02:27:15.922Z,22.87
2018-08-16T02:29:44.784Z,22.80
2018-08-16T02:32:13.648Z,22.91
2018-08-16T02:34:42.526Z,22.92
2018-08-16T02:37:11.336Z,22.80
2018-08-16T02:39:40.187Z,22.85
2018-08-16T02:42:08.977Z,22.79
2018-08-16T02:44:37.760Z,22.78
2018-08-16T02:47:06.623Z,22.69
2018-08-16T02:49:35.424Z,22.42
2018-08-16T02:52:04.351Z,22.43
2018-08-16T02:54:33.246Z,22.40
2018-08-16T02:57:02.071Z,22.12
2018-08-16T02:59:30.878Z,22.22
2018-08-16T03:01:59.664Z,22.25
2018-08-16T03:04:28.456Z,22.06
2018-08-16T03:06:57.425Z,21.90
2018-08-16T03:09:26.227Z,21.83
2018-08-16T03:11:55.080Z,21.90
2018-08-16T03:14:23.900Z,21.89
2018-08-16T03:16:52.745Z,21.82
2018-08-16T03:19:21.676Z,21.88
2018-08-16T03:21:50.525Z,21.72
2018-08-16T03:24:19.408Z,21.78
2018-08-16T03:26:48.229Z,21.74
2018-08-16T03:29:17.037Z,21.63
2018-08-16T03:31:45.902Z,21.69
2018-08-16T03:34:14.674Z,21.53
2018-08-16T03:36:43.474Z,21.60
2018-08-16T03:39:12.317Z,21.73
2018-08-16T03:41:41.181Z,21.56
2018-08-16T03:44:09.990Z,21.59
2018-08-16T03:46:38.846Z,21.59
2018-08-16T03:49:07.674Z,21.45
2018-08-16T03:51:36.512Z,21.47
2018-08-16T03:54:05.701Z,21.68
2018-08-16T03:56:34.520Z,21.76
2018-08-16T03:59:03.346Z,21.80
2018-08-16T04:01:32.239Z,21.75
2018-08-16T04:04:01.064Z,21.61
2018-08-16T04:06:29.843Z,21.70
2018-08-16T04:08:58.689Z,21.78
2018-08-16T04:11:27.538Z,21.85
2018-08-16T04:13:56.331Z,21.83
2018-08-16T04:16:25.162Z,21.86
2018-08-16T04:18:54.109Z,21.72
2018-08-16T04:21:22.924Z,21.76
2018-08-16T04:23:51.703Z,21.82
2018-08-16T04:26:20.508Z,21.93
2018-08-16T04:28:49.307Z,22.22
2018-08-16T04:31:18.179Z,22.49
2018-08-16T04:33:47.054Z,22.56
2018-08-16T04:36:15.834Z,22.42
2018-08-16T04:38:44.684Z,22.32
2018-08-16T04:41:13.481Z,23.02
2018-08-16T04:43:42.278Z,22.72
2018-08-16T04:46:11.129Z,22.76
2018-08-16T04:48:39.972Z,22.67
2018-08-16T04:51:08.703Z,22.46
2018-08-16T04:53:37.545Z,22.32
2018-08-16T04:56:06.395Z,22.50
2018-08-16T04:58:35.255Z,22.65
2018-08-16T05:01:04.099Z,22.66
2018-08-16T05:03:33.028Z,22.76
2018-08-16T05:06:01.892Z,22.66
2018-08-16T05:08:30.762Z,23.38
2018-08-16T05:10:59.652Z,23.46
2018-08-16T05:13:28.409Z,23.22
2018-08-16T05:15:57.222Z,22.93
2018-08-16T05:18:26.065Z,23.21
2018-08-16T05:20:54.866Z,22.98
2018-08-16T05:23:23.725Z,22.97
2018-08-16T05:25:52.526Z,23.07
2018-08-16T05:28:21.468Z,23.06
2018-08-16T05:30:50.340Z,22.94
2018-08-16T05:33:19.124Z,22.94
2018-08-16T05:35:47.904Z,24.02
2018-08-16T05:38:16.789Z,23.88
2018-08-16T05:40:45.660Z,23.65
2018-08-16T05:43:14.578Z,24.05
2018-08-16T05:45:43.456Z,23.85
2018-08-16T05:48:12.332Z,23.74
2018-08-16T05:50:41.165Z,23.72
2018-08-16T05:53:10.029Z,23.79
2018-08-16T05:55:38.948Z,23.60
2018-08-16T05:58:08.177Z,23.85
2018-08-16T06:00:37.128Z,23.89
2018-08-16T06:03:06.020Z,23.79
2018-08-16T06:05:34.909Z,23.77
2018-08-16T06:08:03.792Z,23.84
2018-08-16T06:10:32.667Z,23.98
2018-08-16T06:13:01.477Z,24.09
2018-08-16T06:15:30.390Z,24.53
2018-08-16T06:17:59.258Z,24.59
2018-08-16T06:20:28.154Z,24.88
2018-08-16T06:22:57.079Z,25.06
2018-08-16T06:25:25.959Z,25.02
2018-08-16T06:27:54.795Z,25.29
2018-08-16T06:30:23.780Z,25.47
2018-08-16T06:32:52.678Z,25.39
2018-08-16T06:35:21.576Z,25.61
2018-08-16T06:37:50.442Z,25.73
2018-08-16T06:40:19.312Z,25.81
2018-08-16T06:42:48.732Z,26.12
2018-08-16T06:45:17.640Z,26.09
2018-08-16T06:47:46.539Z,26.19
2018-08-16T06:50:15.411Z,26.50
2018-08-16T06:52:44.403Z,26.49
2018-08-16T06:55:13.214Z,27.16
2018-08-16T06:57:42.068Z,26.87
2018-08-16T07:00:10.957Z,26.98
2018-08-16T07:02:39.837Z,27.04
2018-08-16T07:05:09.013Z,27.09
2018-08-16T07:07:38.059Z,27.17
2018-08-16T07:10:08.918Z,27.43
2018-08-16T07:12:37.831Z,27.55
2018-08-16T07:15:09.075Z,27.30
2018-08-16T07:17:37.921Z,27.32
2018-08-16T07:20:07.391Z,27.43
2018-08-16T07:22:36.283Z,27.44
2018-08-16T07:25:05.485Z,28.10
2018-08-16T07:27:34.396Z,27.95
2018-08-16T07:30:03.439Z,28.15
2018-08-16T07:32:32.402Z,28.46
2018-08-16T07:35:01.239Z,28.21
2018-08-16T07:37:30.114Z,27.96
2018-08-16T07:39:59.040Z,28.11
2018-08-16T07:42:27.880Z,28.47
2018-08-16T07:44:56.767Z,28.62
2018-08-16T07:47:25.620Z,28.78
2018-08-16T07:49:54.478Z,28.92
2018-08-16T07:52:23.418Z,28.69
2018-08-16T07:54:52.313Z,28.91
2018-08-16T07:57:21.185Z,28.98
2018-08-16T07:59:50.145Z,28.67
2018-08-16T08:02:19.012Z,28.83
2018-08-16T08:04:47.912Z,28.84
2018-08-16T08:07:16.869Z,29.21
2018-08-16T08:09:45.735Z,29.47
2018-08-16T08:12:14.639Z,29.75
2018-08-16T08:14:44.068Z,29.67
2018-08-16T08:17:13.072Z,29.85
2018-08-16T08:19:41.935Z,29.55
2018-08-16T08:22:11.255Z,29.76
2018-08-16T08:24:40.119Z,29.43
2018-08-16T08:27:09.029Z,29.67
2018-08-16T08:29:37.945Z,29.50
2018-08-16T08:32:07.166Z,30.04
2018-08-16T08:34:36.187Z,29.92
2018-08-16T08:37:16.135Z,30.11
2018-08-16T08:39:45.037Z,30.37
2018-08-16T08:42:13.951Z,30.40
2018-08-16T08:44:42.917Z,29.94
2018-08-16T08:47:11.865Z,30.32
2018-08-16T08:49:40.760Z,30.33
2018-08-16T08:52:09.739Z,30.13
2018-08-16T08:54:57.528Z,30.17
2018-08-16T08:57:38.112Z,30.19
2018-08-16T09:00:07.908Z,30.86
2018-08-16T09:02:36.896Z,31.02
2018-08-16T09:05:06.656Z,30.98
2018-08-16T09:07:35.533Z,31.06
2018-08-16T09:10:46.173Z,31.01
2018-08-16T09:13:26.085Z,31.16
2018-08-16T09:15:55.188Z,31.25
2018-08-16T09:18:24.946Z,31.46
2018-08-16T09:20:53.844Z,31.88
2018-08-16T09:23:22.696Z,32.13
2018-08-16T09:25:51.546Z,32.34
2018-08-16T09:28:20.464Z,32.24
2018-08-16T09:31:00.471Z,32.18
2018-08-16T09:33:40.237Z,32.40
2018-08-16T09:36:09.308Z,32.35
2018-08-16T09:38:38.129Z,32.77
2018-08-16T09:41:07.109Z,32.73
2018-08-16T09:43:36.037Z,32.82
2018-08-16T09:46:46.989Z,33.13
2018-08-16T09:49:16.177Z,33.31
2018-08-16T09:51:46.442Z,32.93
2018-08-16T09:54:15.328Z,33.01
2018-08-16T09:56:45.732Z,33.16
2018-08-16T09:59:15.948Z,33.34
2018-08-16T10:01:45.135Z,33.57
2018-08-16T10:04:14.491Z,33.63
2018-08-16T10:06:44.279Z,33.29
2018-08-16T10:09:16.627Z,33.21
2018-08-16T10:11:46.333Z,33.45
2018-08-16T10:14:16.978Z,33.41
2018-08-16T10:16:46.525Z,33.52
2018-08-16T10:19:16.672Z,33.76
2018-08-16T10:21:46.477Z,33.65
2018-08-16T10:24:15.861Z,33.85
2018-08-16T10:26:45.339Z,34.03
2018-08-16T10:29:14.714Z,34.28
2018-08-16T10:31:45.079Z,34.23
2018-08-16T10:34:15.746Z,34.30
2018-08-16T10:36:45.423Z,34.09
2018-08-16T10:39:20.558Z,34.24
2018-08-16T10:41:51.527Z,33.88
2018-08-16T10:44:20.918Z,34.39
2018-08-16T10:46:50.306Z,34.34
2018-08-16T10:49:20.281Z,34.17
2018-08-16T10:51:49.607Z,34.06
2018-08-16T10:54:18.775Z,34.13
2018-08-16T10:56:48.219Z,33.91
2018-08-16T10:59:19.458Z,34.66
2018-08-16T11:01:49.609Z,35.34
2018-08-16T11:04:18.931Z,34.95
2018-08-16T11:06:49.106Z,34.27
2018-08-16T11:09:22.705Z,34.27
2018-08-16T11:11:52.290Z,34.62
2018-08-16T11:14:21.718Z,34.17
2018-08-16T11:16:50.925Z,34.29
2018-08-16T11:19:20.217Z,34.52
2018-08-16T11:21:49.341Z,34.56
2018-08-16T11:24:18.631Z,34.87
2018-08-16T11:26:47.875Z,35.06
2018-08-16T11:29:17.296Z,35.16
2018-08-16T11:31:46.551Z,35.15
2018-08-16T11:34:15.834Z,35.19
2018-08-16T11:36:45.070Z,35.56
2018-08-16T11:39:14.292Z,35.57
2018-08-16T11:41:43.571Z,35.67
2018-08-16T11:44:12.819Z,35.87
2018-08-16T11:46:42.046Z,35.48
2018-08-16T11:49:11.017Z,35.40
2018-08-16T11:51:40.014Z,35.25
2018-08-16T11:54:09.016Z,35.70
2018-08-16T11:56:38.058Z,35.65
2018-08-16T11:59:07.192Z,35.80
2018-08-16T12:01:36.573Z,34.95
2018-08-16T12:04:05.614Z,34.71
2018-08-16T12:06:34.717Z,35.26
2018-08-16T12:09:04.022Z,35.41
2018-08-16T12:11:33.091Z,35.60
2018-08-16T12:14:02.222Z,36.02
2018-08-16T12:16:31.358Z,36.23
2018-08-16T12:19:00.463Z,36.56
2018-08-16T12:21:29.481Z,36.05
2018-08-16T12:23:58.547Z,35.31
2018-08-16T12:26:27.577Z,35.02
2018-08-16T12:28:56.606Z,34.84
2018-08-16T12:31:25.555Z,35.44
2018-08-16T12:33:54.650Z,34.98
2018-08-16T12:36:23.677Z,34.81
2018-08-16T12:38:52.814Z,35.51
2018-08-16T12:41:21.964Z,35.53
2018-08-16T12:43:51.175Z,35.89
2018-08-16T12:46:20.512Z,36.03
2018-08-16T12:48:49.599Z,36.67
2018-08-16T12:51:19.352Z,36.90
2018-08-16T12:53:48.586Z,36.04
2018-08-16T12:56:17.758Z,35.58
2018-08-16T12:58:46.757Z,36.17
2018-08-16T13:01:16.034Z,36.37
2018-08-16T13:03:45.281Z,35.34
2018-08-16T13:06:14.410Z,36.11
2018-08-16T13:08:43.473Z,36.39
2018-08-16T13:11:13.471Z,36.11
2018-08-16T13:13:42.502Z,36.97
2018-08-16T13:16:11.722Z,37.09
2018-08-16T13:18:40.760Z,36.64
2018-08-16T13:21:09.913Z,36.31
2018-08-16T13:23:39.132Z,36.83
2018-08-16T13:26:08.224Z,36.84
2018-08-16T13:28:37.413Z,36.43
2018-08-16T13:31:06.850Z,36.41
2018-08-16T13:33:36.037Z,36.40
2018-08-16T13:36:05.141Z,36.30
2018-08-16T13:38:34.181Z,35.78
2018-08-16T13:41:03.280Z,35.40
2018-08-16T13:43:32.280Z,35.32
2018-08-16T13:46:01.728Z,35.44
2018-08-16T13:48:31.031Z,35.13
2018-08-16T13:51:00.092Z,35.17
2018-08-16T13:53:29.225Z,35.15
2018-08-16T13:55:58.534Z,35.17
2018-08-16T13:58:27.927Z,35.26
2018-08-16T14:00:57.239Z,35.10
2018-08-16T14:03:26.423Z,34.86
2018-08-16T14:05:55.609Z,34.88
2018-08-16T14:08:24.658Z,35.03
2018-08-16T14:10:53.650Z,35.05
2018-08-16T14:13:23.762Z,35.23
2018-08-16T14:15:53.259Z,35.60
2018-08-16T14:18:22.495Z,35.48
2018-08-16T14:20:51.519Z,34.86
2018-08-16T14:23:20.611Z,34.33
2018-08-16T14:25:50.035Z,34.27
2018-08-16T14:28:18.993Z,34.30
2018-08-16T14:30:48.080Z,34.54
2018-08-16T14:33:17.129Z,34.31
2018-08-16T14:35:46.094Z,34.20
2018-08-16T14:38:15.022Z,34.12
2018-08-16T14:40:44.125Z,34.57
2018-08-16T14:43:13.329Z,34.40
2018-08-16T14:45:42.527Z,34.62
2018-08-16T14:48:12.339Z,34.75
2018-08-16T14:50:42.487Z,35.14
2018-08-16T14:53:11.776Z,34.84
2018-08-16T14:55:40.968Z,34.77
2018-08-16T14:58:09.931Z,35.33
2018-08-16T15:00:39.013Z,35.70
2018-08-16T15:03:08.191Z,36.05
2018-08-16T15:05:37.244Z,35.95
2018-08-16T15:08:06.349Z,35.96
2018-08-16T15:10:35.521Z,35.70
2018-08-16T15:13:04.716Z,35.72
2018-08-16T15:15:33.854Z,36.01
2018-08-16T15:18:02.871Z,35.59
2018-08-16T15:20:31.867Z,35.50
2018-08-16T15:23:01.157Z,35.54
2018-08-16T15:25:30.606Z,35.39
2018-08-16T15:27:59.492Z,35.52
2018-08-16T15:30:28.513Z,35.49
2018-08-16T15:32:57.533Z,35.45
2018-08-16T15:35:27.553Z,35.39
2018-08-16T15:37:56.470Z,34.83
2018-08-16T15:40:25.570Z,35.17
2018-08-16T15:42:54.655Z,35.37
2018-08-16T15:45:24.548Z,35.13
2018-08-16T15:47:53.637Z,34.76
2018-08-16T15:50:22.700Z,35.04
2018-08-16T15:52:51.818Z,34.82
2018-08-16T15:55:20.967Z,35.01
2018-08-16T15:57:50.136Z,34.77
2018-08-16T16:00:19.150Z,35.21
2018-08-16T16:02:48.138Z,35.19
2018-08-16T16:05:17.338Z,35.11
2018-08-16T16:07:46.467Z,35.11
2018-08-16T16:10:15.543Z,34.95
2018-08-16T16:12:44.521Z,35.94
2018-08-16T16:15:13.479Z,35.53
2018-08-16T16:17:42.622Z,35.19
2018-08-16T16:20:11.651Z,35.57
2018-08-16T16:22:40.798Z,35.45
2018-08-16T16:25:09.919Z,35.60
2018-08-16T16:27:38.899Z,34.93
2018-08-16T16:30:09.401Z,34.81
2018-08-16T16:32:38.395Z,34.95
2018-08-16T16:35:07.349Z,34.61
2018-08-16T16:37:36.294Z,34.50
2018-08-16T16:40:05.558Z,34.74
2018-08-16T16:42:34.372Z,34.58
2018-08-16T16:45:03.510Z,34.20
2018-08-16T16:47:32.434Z,34.30
2018-08-16T16:50:01.329Z,34.02
2018-08-16T16:52:30.278Z,33.74
2018-08-16T16:54:59.142Z,33.25
2018-08-16T16:57:28.090Z,33.40
2018-08-16T16:59:57.112Z,33.17
2018-08-16T17:02:26.075Z,32.77
2018-08-16T17:04:54.921Z,32.68
2018-08-16T17:07:23.905Z,32.57
2018-08-16T17:09:52.782Z,32.45
2018-08-16T17:12:21.716Z,32.24
2018-08-16T17:14:50.607Z,32.16
2018-08-16T17:17:20.484Z,32.14
2018-08-16T17:19:49.556Z,32.29
2018-08-16T17:22:18.845Z,31.98
2018-08-16T17:24:47.801Z,32.07
2018-08-16T17:27:16.891Z,32.09
2018-08-16T17:29:45.728Z,31.89
2018-08-16T17:32:14.644Z,31.91
2018-08-16T17:34:43.588Z,31.99
2018-08-16T17:37:12.580Z,31.82
2018-08-16T17:39:41.464Z,31.85
2018-08-16T17:42:10.566Z,31.84
2018-08-16T17:44:39.444Z,31.85
2018-08-16T17:47:08.497Z,31.52
2018-08-16T17:49:41.697Z,31.11
2018-08-16T17:52:10.768Z,31.29
2018-08-16T17:54:39.614Z,31.15
2018-08-16T17:57:08.506Z,31.19
2018-08-16T17:59:37.376Z,31.23
2018-08-16T18:02:06.314Z,31.16
2018-08-16T18:04:35.286Z,30.99
2018-08-16T18:07:04.308Z,30.91
2018-08-16T18:09:33.276Z,30.84
2018-08-16T18:12:02.569Z,30.60
2018-08-16T18:14:31.542Z,30.64
2018-08-16T18:17:00.599Z,30.87
2018-08-16T18:19:29.507Z,31.08
2018-08-16T18:21:58.447Z,30.96
2018-08-16T18:24:27.520Z,31.06
2018-08-16T18:26:56.412Z,30.98
2018-08-16T18:29:25.406Z,30.85
2018-08-16T18:31:54.705Z,30.38
2018-08-16T18:34:23.626Z,30.20
2018-08-16T18:36:52.805Z,29.99
2018-08-16T18:39:21.778Z,29.74
2018-08-16T18:41:50.836Z,29.47
2018-08-16T18:44:19.931Z,29.13
2018-08-16T18:46:48.841Z,28.99
2018-08-16T18:49:17.884Z,29.29
2018-08-16T18:51:47.105Z,29.06
2018-08-16T18:54:16.116Z,28.86
2018-08-16T18:56:45.454Z,28.87
2018-08-16T18:59:14.399Z,29.01
2018-08-16T19:01:43.434Z,29.06
2018-08-16T19:04:12.380Z,28.87
2018-08-16T19:06:41.374Z,28.77
2018-08-16T19:09:10.515Z,28.56
2018-08-16T19:11:39.389Z,28.80
2018-08-16T19:14:08.474Z,28.85
2018-08-16T19:16:37.517Z,28.92
2018-08-16T19:19:06.794Z,29.15
2018-08-16T19:21:36.189Z,29.04
2018-08-16T19:24:05.254Z,28.94
2018-08-16T19:26:34.177Z,28.60
2018-08-16T19:29:03.215Z,28.66
2018-08-16T19:31:32.181Z,28.25
2018-08-16T19:34:01.191Z,28.27
2018-08-16T19:36:30.198Z,27.97
2018-08-16T19:38:59.108Z,27.69
2018-08-16T19:41:28.118Z,27.47
2018-08-16T19:43:57.091Z,27.47
2018-08-16T19:46:27.135Z,27.13
2018-08-16T19:48:56.018Z,27.06
2018-08-16T19:51:24.964Z,27.15
2018-08-16T19:53:53.868Z,27.08
2018-08-16T19:56:22.821Z,26.83
2018-08-16T19:58:51.747Z,26.89
2018-08-16T20:01:20.763Z,26.78
2018-08-16T20:03:49.579Z,26.95
2018-08-16T20:06:18.450Z,27.05
2018-08-16T20:08:47.344Z,27.28
2018-08-16T20:11:16.215Z,27.11
2018-08-16T20:13:45.141Z,26.93
2018-08-16T20:16:14.081Z,26.72
2018-08-16T20:18:42.943Z,26.39
2018-08-16T20:21:12.831Z,26.55
2018-08-16T20:23:41.725Z,26.63
2018-08-16T20:26:11.035Z,26.88
2018-08-16T20:28:40.069Z,26.99
2018-08-16T20:31:08.993Z,26.91
2018-08-16T20:33:37.864Z,27.32
2018-08-16T20:36:06.819Z,27.30
2018-08-16T20:38:37.022Z,27.69
2018-08-16T20:41:06.003Z,27.58
2018-08-16T20:43:34.912Z,26.71
2018-08-16T20:46:03.984Z,26.74
2018-08-16T20:48:32.896Z,26.34
2018-08-16T20:51:01.885Z,26.38
2018-08-16T20:53:30.852Z,25.89
2018-08-16T20:55:59.824Z,25.68
2018-08-16T20:58:29.328Z,25.29
2018-08-16T21:00:58.411Z,25.58
2018-08-16T21:03:27.282Z,25.37
2018-08-16T21:05:56.199Z,25.08
2018-08-16T21:08:25.147Z,24.86
2018-08-16T21:10:54.090Z,24.49
2018-08-16T21:13:23.023Z,24.19
2018-08-16T21:15:51.911Z,24.15
2018-08-16T21:18:20.762Z,24.07
2018-08-16T21:20:49.708Z,24.10
2018-08-16T21:23:18.548Z,23.98
2018-08-16T21:25:47.439Z,23.98
2018-08-16T21:28:16.385Z,23.88
2018-08-16T21:30:45.371Z,23.92
2018-08-16T21:33:14.279Z,23.80
2018-08-16T21:35:43.169Z,23.89
2018-08-16T21:38:12.029Z,23.93
2018-08-16T21:40:41.093Z,24.73
2018-08-16T21:43:10.000Z,24.84
2018-08-16T21:45:38.891Z,24.65
2018-08-16T21:48:07.821Z,24.55
2018-08-16T21:50:36.671Z,23.98
2018-08-16T21:53:05.532Z,23.82
2018-08-16T21:55:34.477Z,23.54
2018-08-16T21:58:03.425Z,23.43
2018-08-16T22:00:55.458Z,23.38
2018-08-16T22:03:28.500Z,23.41
2018-08-16T22:06:01.387Z,23.38
2018-08-16T22:08:44.040Z,23.26
2018-08-16T22:11:12.916Z,23.23
2018-08-16T22:13:41.913Z,23.10
2018-08-16T22:16:10.907Z,23.05
2018-08-16T22:18:39.973Z,23.18
2018-08-16T22:21:09.107Z,23.10
2018-08-16T22:23:38.100Z,23.27
2018-08-16T22:26:07.061Z,23.37
2018-08-16T22:28:35.948Z,23.24
2018-08-16T22:31:05.342Z,23.39
2018-08-16T22:33:34.211Z,23.30
2018-08-16T22:36:03.076Z,23.30
2018-08-16T22:38:32.035Z,23.42
2018-08-16T22:41:00.896Z,23.57
2018-08-16T22:43:29.754Z,23.51
2018-08-16T22:45:58.681Z,23.48
2018-08-16T22:48:27.581Z,23.31
2018-08-16T22:50:56.642Z,23.30
2018-08-16T22:53:25.491Z,23.39
2018-08-16T22:55:54.468Z,23.34
2018-08-16T22:58:23.298Z,23.47
2018-08-16T23:00:52.388Z,23.50
2018-08-16T23:03:21.248Z,23.48
2018-08-16T23:05:50.061Z,23.69
2018-08-16T23:08:18.917Z,23.64
2018-08-16T23:10:47.796Z,23.65
2018-08-16T23:13:16.675Z,23.73
2018-08-16T23:15:45.542Z,23.72
2018-08-16T23:18:14.353Z,23.82
2018-08-16T23:20:43.302Z,24.11
2018-08-16T23:23:12.218Z,24.66
2018-08-16T23:25:41.165Z,24.33
2018-08-16T23:28:10.062Z,24.02
2018-08-16T23:30:38.980Z,23.55
2018-08-16T23:33:08.461Z,23.56
2018-08-16T23:35:37.335Z,23.58
2018-08-16T23:38:06.277Z,23.37
2018-08-16T23:40:35.106Z,23.26
2018-08-16T23:43:04.083Z,23.20
2018-08-16T23:45:34.038Z,23.05
2018-08-16T23:48:13.983Z,22.75
2018-08-16T23:50:42.912Z,22.71
2018-08-16T23:53:11.752Z,22.73
2018-08-16T23:55:40.633Z,22.85
2018-08-16T23:58:09.559Z,22.89
